createdAt,value
2023-01-09T00:01:27.613Z,99311.59
2023-01-09T00:03:55.998Z,99321.47
2023-01-09T00:06:24.269Z,99323.44
2023-01-09T00:08:52.409Z,99329.78
2023-01-09T00:11:23.004Z,99331.63
2023-01-09T00:13:52.386Z,99331.72
2023-01-09T00:16:20.575Z,99330.88
2023-01-09T00:18:48.524Z,99325.69
2023-01-09T00:21:16.967Z,99334.56
2023-01-09T00:23:45.007Z,99328.50
2023-01-09T00:26:15.045Z,99324.13
2023-01-09T00:28:46.625Z,99324.97
2023-01-09T00:31:16.771Z,99323.28
2023-01-09T00:33:47.131Z,99326.09
2023-01-09T00:36:15.453Z,99330.63
2023-01-09T00:38:43.434Z,99321.84
2023-01-09T00:41:17.203Z,99317.50
2023-01-09T00:43:48.230Z,99323.69
2023-01-09T00:46:19.776Z,99331.88
2023-01-09T00:48:49.802Z,99335.50
2023-01-09T00:51:20.790Z,99335.50
2023-01-09T00:53:53.395Z,99340.03
2023-01-09T00:56:23.564Z,99337.34
2023-01-09T00:58:53.442Z,99351.75
2023-01-09T01:01:22.940Z,99348.22
2023-01-09T01:03:53.472Z,99350.16
2023-01-09T01:06:39.215Z,99350.16
2023-01-09T01:09:07.202Z,99345.81
2023-01-09T01:11:37.186Z,99353.84
2023-01-09T01:14:05.210Z,99349.47
2023-01-09T01:16:34.556Z,99353.09
2023-01-09T01:19:02.796Z,99354.94
2023-01-09T01:21:30.806Z,99356.78
2023-01-09T01:23:58.783Z,99359.59
2023-01-09T01:26:26.745Z,99354.25
2023-01-09T01:28:54.679Z,99354.25
2023-01-09T01:31:23.012Z,99361.44
2023-01-09T01:33:52.582Z,99356.34
2023-01-09T01:36:20.550Z,99362.56
2023-01-09T01:38:48.616Z,99365.38
2023-01-09T01:41:29.583Z,99358.19
2023-01-09T01:44:00.193Z,99365.22
2023-01-09T01:46:29.020Z,99369.75
2023-01-09T01:49:02.369Z,99375.78
2023-01-09T01:51:34.291Z,99374.00
2023-01-09T01:54:06.683Z,99374.84
2023-01-09T01:56:38.923Z,99384.72
2023-01-09T01:59:10.524Z,99381.03
2023-01-09T02:01:41.263Z,99376.66
2023-01-09T02:04:11.480Z,99382.88
2023-01-09T02:06:40.300Z,99383.84
2023-01-09T02:09:09.651Z,99380.47
2023-01-09T02:11:37.565Z,99381.16
2023-01-09T02:14:05.930Z,99373.25
2023-01-09T02:16:47.897Z,99373.53
2023-01-09T02:19:53.669Z,99377.91
2023-01-09T02:22:37.011Z,99382.41
2023-01-09T02:25:33.013Z,99380.72
2023-01-09T02:28:29.498Z,99379.03
2023-01-09T02:31:06.560Z,99385.22
2023-01-09T02:33:48.481Z,99382.69
2023-01-09T02:36:24.028Z,99379.28
2023-01-09T02:39:12.886Z,99389.00
2023-01-09T02:41:49.557Z,99395.38
2023-01-09T02:44:23.271Z,99390.84
2023-01-09T02:47:03.545Z,99393.69
2023-01-09T02:49:33.150Z,99388.31
2023-01-09T02:52:15.445Z,99387.59
2023-01-09T02:54:55.647Z,99398.31
2023-01-09T02:57:37.576Z,99390.28
2023-01-09T03:00:14.837Z,99397.47
2023-01-09T03:02:51.411Z,99382.38
2023-01-09T03:05:24.680Z,99378.84
2023-01-09T03:08:00.648Z,99379.81
2023-01-09T03:10:34.866Z,99379.81
2023-01-09T03:13:04.197Z,99381.66
2023-01-09T03:15:37.637Z,99383.47
2023-01-09T03:18:09.927Z,99385.47
2023-01-09T03:20:38.640Z,99392.50
2023-01-09T03:23:08.003Z,99389.84
2023-01-09T03:25:38.959Z,99389.97
2023-01-09T03:28:08.754Z,99389.97
2023-01-09T03:30:37.953Z,99381.22
2023-01-09T03:33:07.344Z,99395.44
2023-01-09T03:35:35.252Z,99396.44
2023-01-09T03:38:03.311Z,99399.13
2023-01-09T03:40:31.296Z,99393.75
2023-01-09T03:42:59.278Z,99397.41
2023-01-09T03:45:30.486Z,99397.50
2023-01-09T03:47:59.454Z,99385.94
2023-01-09T03:50:28.807Z,99390.47
2023-01-09T03:52:56.786Z,99399.34
2023-01-09T03:55:24.900Z,99384.25
2023-01-09T03:57:55.353Z,99385.25
2023-01-09T04:00:23.773Z,99392.28
2023-01-09T04:02:51.831Z,99400.44
2023-01-09T04:05:19.831Z,99401.31
2023-01-09T04:07:49.171Z,99399.59
2023-01-09T04:10:17.894Z,99390.72
2023-01-09T04:12:45.903Z,99400.59
2023-01-09T04:15:14.001Z,99404.09
2023-01-09T04:17:41.961Z,99395.22
2023-01-09T04:20:11.090Z,99397.22
2023-01-09T04:22:42.595Z,99394.53
2023-01-09T04:25:12.704Z,99394.53
2023-01-09T04:27:40.661Z,99395.50
2023-01-09T04:30:09.944Z,99407.03
2023-01-09T04:32:37.902Z,99408.88
2023-01-09T04:35:06.886Z,99405.50
2023-01-09T04:37:36.188Z,99410.00
2023-01-09T04:40:06.893Z,99412.69
2023-01-09T04:42:39.279Z,99411.81
2023-01-09T04:45:09.131Z,99419.00
2023-01-09T04:47:37.175Z,99412.81
2023-01-09T04:50:07.815Z,99413.78
2023-01-09T04:52:37.609Z,99415.63
2023-01-09T04:55:08.512Z,99422.81
2023-01-09T04:57:38.208Z,99422.81
2023-01-09T05:00:09.931Z,99417.47
2023-01-09T05:02:38.747Z,99412.22
2023-01-09T05:05:11.724Z,99416.72
2023-01-09T05:07:40.282Z,99412.34
2023-01-09T05:10:10.001Z,99409.81
2023-01-09T05:12:39.880Z,99414.03
2023-01-09T05:15:11.487Z,99415.19
2023-01-09T05:17:39.530Z,99419.53
2023-01-09T05:20:08.322Z,99416.03
2023-01-09T05:22:37.108Z,99420.53
2023-01-09T05:25:05.414Z,99416.97
2023-01-09T05:27:33.452Z,99412.63
2023-01-09T05:30:02.816Z,99417.97
2023-01-09T05:32:30.852Z,99416.13
2023-01-09T05:34:58.877Z,99418.81
2023-01-09T05:37:26.899Z,99411.78
2023-01-09T05:39:56.974Z,99412.75
2023-01-09T05:42:25.003Z,99410.09
2023-01-09T05:44:53.300Z,99398.66
2023-01-09T05:47:22.603Z,99405.81
2023-01-09T05:49:50.558Z,99404.00
2023-01-09T05:52:18.552Z,99404.13
2023-01-09T05:54:46.505Z,99402.31
2023-01-09T05:57:14.557Z,99397.09
2023-01-09T05:59:42.651Z,99398.78
2023-01-09T06:02:10.876Z,99400.63
2023-01-09T06:04:40.310Z,99401.56
2023-01-09T06:07:08.535Z,99407.91
2023-01-09T06:09:36.543Z,99392.69
2023-01-09T06:12:04.848Z,99395.38
2023-01-09T06:14:33.080Z,99399.88
2023-01-09T06:17:01.328Z,99400.72
2023-01-09T06:19:29.273Z,99396.38
2023-01-09T06:21:58.609Z,99394.53
2023-01-09T06:24:26.683Z,99389.31
2023-01-09T06:26:54.623Z,99389.44
2023-01-09T06:29:22.611Z,99396.50
2023-01-09T06:31:50.565Z,99388.59
2023-01-09T06:34:18.580Z,99393.00
2023-01-09T06:36:46.558Z,99390.31
2023-01-09T06:39:15.879Z,99393.00
2023-01-09T06:41:47.022Z,99384.97
2023-01-09T06:44:16.471Z,99390.31
2023-01-09T06:46:44.467Z,99387.63
2023-01-09T06:49:12.577Z,99386.75
2023-01-09T06:51:40.649Z,99383.25
2023-01-09T06:54:08.598Z,99384.09
2023-01-09T06:56:37.974Z,99385.91
2023-01-09T06:59:05.980Z,99377.03
2023-01-09T07:01:34.040Z,99382.53
2023-01-09T07:04:02.094Z,99381.69
2023-01-09T07:06:30.134Z,99385.22
2023-01-09T07:08:58.166Z,99385.22
2023-01-09T07:11:26.116Z,99374.50
2023-01-09T07:13:55.449Z,99385.22
2023-01-09T07:16:23.469Z,99386.16
2023-01-09T07:18:52.486Z,99384.47
2023-01-09T07:21:20.506Z,99390.56
2023-01-09T07:23:48.748Z,99388.84
2023-01-09T07:26:17.061Z,99393.34
2023-01-09T07:28:45.131Z,99384.47
2023-01-09T07:31:14.530Z,99388.28
2023-01-09T07:33:42.573Z,99390.81
2023-01-09T07:36:11.546Z,99396.19
2023-01-09T07:38:39.692Z,99390.81
2023-01-09T07:41:07.663Z,99394.50
2023-01-09T07:43:35.659Z,99403.34
2023-01-09T07:46:03.640Z,99403.47
2023-01-09T07:48:33.010Z,99405.19
2023-01-09T07:51:01.617Z,99403.47
2023-01-09T07:53:29.667Z,99399.84
2023-01-09T07:55:57.687Z,99397.16
2023-01-09T07:58:25.657Z,99399.84
2023-01-09T08:00:53.726Z,99397.41
2023-01-09T08:03:21.699Z,99406.16
2023-01-09T08:05:51.677Z,99405.31
2023-01-09T08:08:20.087Z,99412.47
2023-01-09T08:10:48.072Z,99410.66
2023-01-09T08:13:16.049Z,99421.34
2023-01-09T08:15:44.060Z,99412.47
2023-01-09T08:18:12.095Z,99418.81
2023-01-09T08:20:40.335Z,99425.16
2023-01-09T08:23:09.698Z,99431.59
2023-01-09T08:25:37.688Z,99439.78
2023-01-09T08:28:06.160Z,99435.28
2023-01-09T08:30:34.115Z,99440.63
2023-01-09T08:33:02.357Z,99448.50
2023-01-09T08:35:30.369Z,99448.50
2023-01-09T08:37:58.374Z,99445.97
2023-01-09T08:40:27.779Z,99450.34
2023-01-09T08:43:13.699Z,99447.81
2023-01-09T08:45:58.853Z,99451.31
2023-01-09T08:48:26.932Z,99449.59
2023-01-09T08:50:55.207Z,99458.50
2023-01-09T08:53:23.259Z,99453.16
2023-01-09T08:55:52.627Z,99461.19
2023-01-09T08:58:20.621Z,99460.31
2023-01-09T09:00:48.652Z,99464.81
2023-01-09T09:03:17.454Z,99464.81
2023-01-09T09:05:46.815Z,99476.34
2023-01-09T09:08:15.769Z,99473.69
2023-01-09T09:10:44.020Z,99473.69
2023-01-09T09:13:15.690Z,99475.50
2023-01-09T09:15:43.794Z,99490.63
2023-01-09T09:18:11.854Z,99494.25
2023-01-09T09:20:40.539Z,99497.91
2023-01-09T09:23:09.323Z,99489.75
2023-01-09T09:25:38.526Z,99496.06
2023-01-09T09:28:07.206Z,99493.41
2023-01-09T09:30:36.725Z,99497.06
2023-01-09T09:33:05.265Z,99502.41
2023-01-09T09:35:33.835Z,99516.63
2023-01-09T09:38:05.347Z,99514.81
2023-01-09T09:40:57.982Z,99520.28
2023-01-09T09:43:58.486Z,99527.34
2023-01-09T09:46:37.710Z,99531.00
2023-01-09T09:49:13.621Z,99537.19
2023-01-09T09:52:10.373Z,99530.84
2023-01-09T09:54:42.432Z,99548.75
2023-01-09T09:57:18.240Z,99563.09
2023-01-09T09:59:51.446Z,99561.41
2023-01-09T10:02:30.072Z,99566.78
2023-01-09T10:05:02.993Z,99573.06
2023-01-09T10:07:37.179Z,99578.41
2023-01-09T10:10:12.285Z,99574.06
2023-01-09T10:12:47.274Z,99584.75
2023-01-09T10:15:19.356Z,99586.72
2023-01-09T10:18:01.289Z,99591.34
2023-01-09T10:20:55.933Z,99604.84
2023-01-09T10:24:05.358Z,99609.06
2023-01-09T10:26:41.800Z,99607.25
2023-01-09T10:29:26.201Z,99613.47
2023-01-09T10:32:07.424Z,99623.56
2023-01-09T10:34:49.558Z,99618.31
2023-01-09T10:37:23.988Z,99628.41
2023-01-09T10:40:00.308Z,99634.00
2023-01-09T10:42:33.680Z,99640.25
2023-01-09T10:45:07.246Z,99641.09
2023-01-09T10:47:37.773Z,99641.78
2023-01-09T10:50:20.884Z,99654.22
2023-01-09T10:52:51.235Z,99655.78
2023-01-09T10:55:23.459Z,99660.16
2023-01-09T10:57:53.469Z,99667.22
2023-01-09T11:00:24.925Z,99668.91
2023-01-09T11:02:54.795Z,99671.47
2023-01-09T11:05:28.017Z,99675.00
2023-01-09T11:07:59.604Z,99681.22
2023-01-09T11:10:47.410Z,99674.03
2023-01-09T11:13:19.829Z,99679.38
2023-01-09T11:15:48.222Z,99682.91
2023-01-09T11:18:21.989Z,99689.94
2023-01-09T11:20:51.873Z,99685.44
2023-01-09T11:23:31.696Z,99689.84
2023-01-09T11:26:01.925Z,99706.13
2023-01-09T11:28:30.545Z,99699.94
2023-01-09T11:31:03.671Z,99699.31
2023-01-09T11:33:35.492Z,99701.03
2023-01-09T11:36:11.280Z,99699.31
2023-01-09T11:38:50.485Z,99708.06
2023-01-09T11:41:22.087Z,99715.00
2023-01-09T11:43:51.915Z,99718.41
2023-01-09T11:46:40.851Z,99713.94
2023-01-09T11:49:23.624Z,99720.13
2023-01-09T11:52:16.448Z,99720.84
2023-01-09T11:54:51.139Z,99726.09
2023-01-09T11:57:19.646Z,99725.81
2023-01-09T11:59:47.712Z,99721.22
2023-01-09T12:02:36.155Z,99736.41
2023-01-09T12:05:12.962Z,99729.94
2023-01-09T12:07:58.131Z,99733.59
2023-01-09T12:10:38.889Z,99736.88
2023-01-09T12:13:17.632Z,99734.09
2023-01-09T12:15:56.108Z,99734.09
2023-01-09T12:18:38.525Z,99735.66
2023-01-09T12:21:23.215Z,99738.25
2023-01-09T12:24:13.577Z,99742.63
2023-01-09T12:26:50.253Z,99749.53
2023-01-09T12:29:37.885Z,99747.72
2023-01-09T12:32:27.650Z,99745.06
2023-01-09T12:35:07.938Z,99743.09
2023-01-09T12:38:02.569Z,99751.13
2023-01-09T12:40:50.006Z,99757.44
2023-01-09T12:43:29.746Z,99753.78
2023-01-09T12:46:11.947Z,99764.50
2023-01-09T12:48:56.603Z,99775.22
2023-01-09T12:51:33.601Z,99772.53
2023-01-09T12:54:07.423Z,99780.44
2023-01-09T12:56:40.410Z,99797.47
2023-01-09T12:59:30.298Z,99802.81
2023-01-09T13:02:07.844Z,99800.03
2023-01-09T13:04:40.926Z,99806.34
2023-01-09T13:07:25.077Z,99798.44
2023-01-09T13:10:00.977Z,99806.47
2023-01-09T13:12:36.783Z,99807.19
2023-01-09T13:15:08.689Z,99818.88
2023-01-09T13:17:41.703Z,99813.66
2023-01-09T13:20:21.202Z,99827.75
2023-01-09T13:22:52.336Z,99826.81
2023-01-09T13:25:44.792Z,99820.47
2023-01-09T13:28:20.208Z,99832.88
2023-01-09T13:31:19.293Z,99837.38
2023-01-09T13:33:54.032Z,99851.63
2023-01-09T13:36:27.325Z,99857.97
2023-01-09T13:38:56.785Z,99847.97
2023-01-09T13:41:45.898Z,99857.81
2023-01-09T13:44:29.477Z,99865.84
2023-01-09T13:46:59.963Z,99873.88
2023-01-09T13:49:50.300Z,99879.25
2023-01-09T13:52:34.000Z,99879.25
2023-01-09T13:55:28.887Z,99880.09
2023-01-09T13:58:32.195Z,99879.25
2023-01-09T14:01:08.027Z,99889.00
2023-01-09T14:03:38.062Z,99889.00
2023-01-09T14:06:24.308Z,99906.84
2023-01-09T14:09:13.800Z,99918.44
2023-01-09T14:11:42.037Z,99909.53
2023-01-09T14:14:25.471Z,99922.91
2023-01-09T14:16:55.049Z,99926.34
2023-01-09T14:19:36.017Z,99935.38
2023-01-09T14:22:05.338Z,99939.72
2023-01-09T14:24:41.035Z,99948.75
2023-01-09T14:27:47.729Z,99960.16
2023-01-09T14:30:31.217Z,99966.38
2023-01-09T14:33:02.308Z,99967.22
2023-01-09T14:35:38.727Z,99974.31
2023-01-09T14:38:17.432Z,99985.03
2023-01-09T14:40:49.218Z,99990.38
2023-01-09T14:43:25.860Z,99985.03
2023-01-09T14:45:59.944Z,99993.78
2023-01-09T14:48:30.475Z,99998.28
2023-01-09T14:51:00.033Z,100004.47
2023-01-09T14:53:32.389Z,100008.97
2023-01-09T14:56:00.838Z,100027.59
2023-01-09T14:58:31.099Z,100023.13
2023-01-09T15:01:02.740Z,100033.84
2023-01-09T15:03:35.353Z,100050.63
2023-01-09T15:06:04.382Z,100062.19
2023-01-09T15:08:34.772Z,100057.69
2023-01-09T15:11:03.364Z,100072.66
2023-01-09T15:13:38.274Z,100068.28
2023-01-09T15:16:07.739Z,100086.91
2023-01-09T15:18:42.947Z,100080.81
2023-01-09T15:21:19.604Z,100097.53
2023-01-09T15:23:47.724Z,100098.38
2023-01-09T15:26:26.945Z,100101.03
2023-01-09T15:29:01.729Z,100096.63
2023-01-09T15:31:30.479Z,100105.56
2023-01-09T15:33:59.861Z,100109.19
2023-01-09T15:36:31.031Z,100109.94
2023-01-09T15:39:00.307Z,100115.28
2023-01-09T15:41:47.399Z,100117.84
2023-01-09T15:44:20.351Z,100124.16
2023-01-09T15:46:50.276Z,100130.38
2023-01-09T15:49:20.582Z,100127.59
2023-01-09T15:51:49.901Z,100139.16
2023-01-09T15:54:28.541Z,100142.78
2023-01-09T15:57:10.921Z,100142.78
2023-01-09T15:59:38.913Z,100146.34
2023-01-09T16:02:32.117Z,100152.66
2023-01-09T16:05:07.549Z,100158.13
2023-01-09T16:07:36.151Z,100169.81
2023-01-09T16:10:04.540Z,100169.91
2023-01-09T16:12:32.650Z,100177.94
2023-01-09T16:15:02.236Z,100176.81
2023-01-09T16:17:31.921Z,100186.78
2023-01-09T16:20:15.730Z,100187.66
2023-01-09T16:22:54.055Z,100200.06
2023-01-09T16:25:30.410Z,100200.69
2023-01-09T16:28:21.139Z,100205.94
2023-01-09T16:30:55.187Z,100211.19
2023-01-09T16:33:25.215Z,100212.06
2023-01-09T16:35:58.441Z,100214.75
2023-01-09T16:38:27.627Z,100206.84
2023-01-09T16:41:20.803Z,100223.66
2023-01-09T16:43:51.951Z,100225.22
2023-01-09T16:46:22.361Z,100223.19
2023-01-09T16:48:50.567Z,100229.94
2023-01-09T16:51:23.804Z,100243.06
2023-01-09T16:53:51.825Z,100239.31
2023-01-09T16:56:22.693Z,100241.81
2023-01-09T16:58:53.336Z,100241.69
2023-01-09T17:01:21.921Z,100256.78
2023-01-09T17:03:50.377Z,100254.00
2023-01-09T17:06:24.327Z,100255.59
2023-01-09T17:08:52.534Z,100268.03
2023-01-09T17:11:23.825Z,100272.28
2023-01-09T17:13:52.024Z,100274.03
2023-01-09T17:16:20.267Z,100282.78
2023-01-09T17:18:48.323Z,100294.25
2023-01-09T17:21:18.903Z,100284.41
2023-01-09T17:24:08.850Z,100288.78
2023-01-09T17:26:55.505Z,100291.25
2023-01-09T17:29:23.883Z,100285.88
2023-01-09T17:31:52.005Z,100302.59
2023-01-09T17:34:20.076Z,100305.16
2023-01-09T17:36:48.134Z,100313.09
2023-01-09T17:39:18.774Z,100313.94
2023-01-09T17:41:46.810Z,100316.63
2023-01-09T17:44:14.883Z,100326.38
2023-01-09T17:46:45.426Z,100335.13
2023-01-09T17:49:17.418Z,100320.78
2023-01-09T17:51:45.725Z,100339.53
2023-01-09T17:54:19.708Z,100349.28
2023-01-09T17:56:51.776Z,100352.72
2023-01-09T17:59:19.953Z,100357.97
2023-01-09T18:01:48.223Z,100359.78
2023-01-09T18:04:16.405Z,100355.28
2023-01-09T18:06:48.268Z,100359.66
2023-01-09T18:09:18.585Z,100372.09
2023-01-09T18:11:48.373Z,100380.03
2023-01-09T18:14:17.495Z,100390.63
2023-01-09T18:16:45.622Z,100392.38
2023-01-09T18:19:13.643Z,100406.63
2023-01-09T18:21:41.679Z,100402.97
2023-01-09T18:24:10.363Z,100407.47
2023-01-09T18:26:39.704Z,100417.22
2023-01-09T18:29:07.797Z,100425.13
2023-01-09T18:31:35.959Z,100430.41
2023-01-09T18:34:05.588Z,100440.00
2023-01-09T18:36:33.819Z,100444.44
2023-01-09T18:39:03.717Z,100444.44
2023-01-09T18:41:32.417Z,100454.94
2023-01-09T18:44:03.135Z,100462.72
2023-01-09T18:46:32.294Z,100463.50
2023-01-09T18:49:01.894Z,100472.25
2023-01-09T18:51:30.652Z,100479.38
2023-01-09T18:53:59.656Z,100482.78
2023-01-09T18:56:30.076Z,100491.56
2023-01-09T18:58:59.018Z,100495.00
2023-01-09T19:01:31.989Z,100490.25
2023-01-09T19:04:01.289Z,100498.19
2023-01-09T19:06:30.512Z,100502.59
2023-01-09T19:09:01.781Z,100510.53
2023-01-09T19:11:30.030Z,100503.44
2023-01-09T19:13:58.140Z,100524.78
2023-01-09T19:16:26.326Z,100524.78
2023-01-09T19:18:55.766Z,100534.56
2023-01-09T19:21:26.814Z,100532.75
2023-01-09T19:23:54.926Z,100548.81
2023-01-09T19:26:24.690Z,100543.47
2023-01-09T19:28:55.307Z,100555.03
2023-01-09T19:31:24.589Z,100562.13
2023-01-09T19:33:53.288Z,100557.72
2023-01-09T19:36:22.907Z,100577.34
2023-01-09T19:38:56.283Z,100580.88
2023-01-09T19:41:26.771Z,100585.59
2023-01-09T19:43:55.117Z,100596.97
2023-01-09T19:46:25.065Z,100604.16
2023-01-09T19:48:58.352Z,100614.03
2023-01-09T19:51:29.107Z,100608.69
2023-01-09T19:56:29.555Z,100617.78
2023-01-09T19:58:59.549Z,100623.16
2023-01-09T20:01:29.598Z,100624.97
2023-01-09T20:04:02.784Z,100630.56
2023-01-09T20:06:32.656Z,100646.75
2023-01-09T20:09:02.434Z,100647.72
2023-01-09T20:11:32.661Z,100652.34
2023-01-09T20:14:00.789Z,100649.66
2023-01-09T20:16:30.687Z,100652.22
2023-01-09T20:19:00.937Z,100663.81
2023-01-09T20:21:30.167Z,100662.09
2023-01-09T20:24:01.413Z,100667.44
2023-01-09T20:26:30.296Z,100678.09
2023-01-09T20:28:58.781Z,100680.75
2023-01-09T20:31:28.740Z,100688.81
2023-01-09T20:33:58.283Z,100696.84
2023-01-09T20:36:30.285Z,100691.50
2023-01-09T20:39:05.339Z,100698.69
2023-01-09T20:41:33.309Z,100699.53
2023-01-09T20:44:07.051Z,100706.81
2023-01-09T20:46:37.960Z,100715.72
2023-01-09T20:49:07.699Z,100708.63
2023-01-09T20:51:36.375Z,100725.69
2023-01-09T20:54:05.872Z,100722.25
2023-01-09T20:56:34.178Z,100727.72
2023-01-09T20:59:02.230Z,100731.38
2023-01-09T21:01:30.587Z,100732.44
2023-01-09T21:03:59.050Z,100745.00
2023-01-09T21:06:28.278Z,100747.75
2023-01-09T21:08:56.311Z,100762.91
2023-01-09T21:11:25.721Z,100767.41
2023-01-09T21:13:53.713Z,100768.34
2023-01-09T21:16:24.995Z,100769.22
2023-01-09T21:18:54.439Z,100771.03
2023-01-09T21:21:24.109Z,100779.31
2023-01-09T21:23:54.450Z,100779.31
2023-01-09T21:26:24.873Z,100773.06
2023-01-09T21:28:56.207Z,100785.59
2023-01-09T21:31:28.714Z,100787.44
2023-01-09T21:33:59.098Z,100789.06
2023-01-09T21:36:27.449Z,100802.47
2023-01-09T21:38:58.961Z,100806.00
2023-01-09T21:41:44.215Z,100812.41
2023-01-09T21:44:32.144Z,100812.41
2023-01-09T21:47:00.994Z,100810.72
2023-01-09T21:49:34.828Z,100812.53
2023-01-09T21:52:04.625Z,100822.41
2023-01-09T21:54:33.809Z,100823.34
2023-01-09T21:57:04.827Z,100834.06
2023-01-09T21:59:34.223Z,100835.88
2023-01-09T22:02:02.290Z,100836.84
2023-01-09T22:04:30.607Z,100840.50
2023-01-09T22:06:59.920Z,100855.72
2023-01-09T22:09:28.120Z,100861.94
2023-01-09T22:11:56.115Z,100856.59
2023-01-09T22:14:24.735Z,100855.72
2023-01-09T22:16:54.115Z,100855.72
2023-01-09T22:19:22.404Z,100856.66
2023-01-09T22:21:50.634Z,100865.59
2023-01-09T22:24:21.613Z,100877.25
2023-01-09T22:26:49.666Z,100882.72
2023-01-09T22:29:17.668Z,100891.75
2023-01-09T22:31:45.862Z,100895.28
2023-01-09T22:34:17.638Z,100900.72
2023-01-09T22:36:46.767Z,100894.50
2023-01-09T22:39:17.245Z,100908.88
2023-01-09T22:41:45.931Z,100901.78
2023-01-09T22:44:14.270Z,100926.00
2023-01-09T22:46:42.535Z,100932.13
2023-01-09T22:49:12.082Z,100933.84
2023-01-09T22:51:41.627Z,100938.47
2023-01-09T22:54:09.602Z,100934.91
2023-01-09T22:56:37.572Z,100953.66
2023-01-09T22:59:05.653Z,100967.94
2023-01-09T23:01:33.617Z,100975.09
2023-01-09T23:04:03.660Z,100966.31
2023-01-09T23:06:32.013Z,100985.94
2023-01-09T23:09:01.452Z,100983.34
2023-01-09T23:11:48.659Z,100989.56
2023-01-09T23:14:17.151Z,100989.56
2023-01-09T23:16:45.265Z,100998.59
2023-01-09T23:19:15.744Z,100997.69
2023-01-09T23:21:44.997Z,101003.06
2023-01-09T23:24:15.670Z,100997.81
2023-01-09T23:26:44.560Z,101012.06
2023-01-09T23:29:13.072Z,101004.88
2023-01-09T23:31:41.314Z,101012.91
2023-01-09T23:34:09.574Z,101028.25
2023-01-09T23:36:37.886Z,101022.91
2023-01-09T23:39:09.014Z,101034.47
2023-01-09T23:41:56.343Z,101038.00
2023-01-09T23:44:24.751Z,101040.56
2023-01-09T23:46:52.820Z,101053.91
2023-01-09T23:49:20.996Z,101049.41
2023-01-09T23:51:51.313Z,101053.03
2023-01-09T23:54:19.336Z,101063.66
2023-01-09T23:56:48.755Z,101062.91
2023-01-09T23:59:18.026Z,101074.50
